KPOU/POU METAR and TAF weather

Enter ICAO airport designator
Station Type Date Time Source
KPOU METAR 2019/05/23 18:53 UTC NOAA

KPOU 231853Z 24007KT 10SM CLR 22/11 A2999 RMK AO2 SLP151 T02170106


Station Type Date Time Source
KPOU Decoded METAR 2019/05/23 18:53 UTC NOAA

POUGHKEEPSIE DUTCHESS CTY, NY, United States (KPOU) 41-38N 073-53W 46M
May 23, 2019 - 02:53 PM EDT / 2019.05.23 1853 UTC
Wind: from the WSW (240 degrees) at 8 MPH (7 KT):0
Visibility: 10 mile(s):0
Sky conditions: clear
Temperature: 71.1 F (21.7 C)
Dew Point: 51.1 F (10.6 C)
Relative Humidity: 49%
Pressure (altimeter): 29.99 in. Hg (1015 hPa)
ob: KPOU 231853Z 24007KT 10SM CLR 22/11 A2999 RMK AO2 SLP151 T02170106
cycle: 19

Station Type Date Time Source
KPOU TAF 2019/05/23 18:30 UTC NOAA

TAF KPOU 231728Z 2318/2418 21011G19KT P6SM SCT080
FM232000 16008KT P6SM VCTS BKN060CB
FM240100 22008KT P6SM VCSH SCT025 BKN040
FM240500 29007KT P6SM FEW050
FM241300 30012G24KT P6SM SCT040

Example: see airport list